sensor_id;sensor_type;location;lat;lon;timestamp;P1;durP1;ratioP1;P2;durP2;ratioP2
62338;SDS011;48368;53.406;6.214;2022-07-12T00:02:05;6.13;;;2.83;;
62338;SDS011;48368;53.406;6.214;2022-07-12T00:04:31;5.90;;;2.90;;
62338;SDS011;48368;53.406;6.214;2022-07-12T00:06:57;12.73;;;3.83;;
62338;SDS011;48368;53.406;6.214;2022-07-12T00:09:22;7.88;;;3.65;;
62338;SDS011;48368;53.406;6.214;2022-07-12T00:11:48;8.50;;;3.63;;
62338;SDS011;48368;53.406;6.214;2022-07-12T00:14:14;8.18;;;3.33;;
62338;SDS011;48368;53.406;6.214;2022-07-12T00:16:40;7.93;;;3.72;;
62338;SDS011;48368;53.406;6.214;2022-07-12T00:19:05;11.15;;;4.05;;
62338;SDS011;48368;53.406;6.214;2022-07-12T00:21:31;11.40;;;3.17;;
62338;SDS011;48368;53.406;6.214;2022-07-12T00:23:57;22.48;;;3.75;;
62338;SDS011;48368;53.406;6.214;2022-07-12T00:26:23;5.75;;;2.38;;
62338;SDS011;48368;53.406;6.214;2022-07-12T00:28:48;6.20;;;2.72;;
62338;SDS011;48368;53.406;6.214;2022-07-12T00:31:14;5.95;;;3.15;;
62338;SDS011;48368;53.406;6.214;2022-07-12T00:33:40;14.25;;;3.60;;
62338;SDS011;48368;53.406;6.214;2022-07-12T00:36:05;26.20;;;4.05;;
62338;SDS011;48368;53.406;6.214;2022-07-12T00:38:31;10.38;;;4.07;;
62338;SDS011;48368;53.406;6.214;2022-07-12T00:40:57;8.63;;;3.67;;
62338;SDS011;48368;53.406;6.214;2022-07-12T00:43:23;12.10;;;3.97;;
62338;SDS011;48368;53.406;6.214;2022-07-12T00:45:49;15.52;;;4.10;;
62338;SDS011;48368;53.406;6.214;2022-07-12T00:48:14;12.77;;;3.55;;
62338;SDS011;48368;53.406;6.214;2022-07-12T00:50:43;16.17;;;4.60;;
62338;SDS011;48368;53.406;6.214;2022-07-12T00:53:12;22.90;;;4.85;;
62338;SDS011;48368;53.406;6.214;2022-07-12T00:55:39;8.75;;;4.60;;
62338;SDS011;48368;53.406;6.214;2022-07-12T00:58:05;14.40;;;5.35;;
62338;SDS011;48368;53.406;6.214;2022-07-12T01:00:31;10.88;;;4.65;;
62338;SDS011;48368;53.406;6.214;2022-07-12T01:02:57;69.75;;;6.72;;
62338;SDS011;48368;53.406;6.214;2022-07-12T01:05:29;14.32;;;4.97;;
62338;SDS011;48368;53.406;6.214;2022-07-12T01:07:55;11.02;;;5.30;;
62338;SDS011;48368;53.406;6.214;2022-07-12T01:10:22;17.98;;;5.82;;
62338;SDS011;48368;53.406;6.214;2022-07-12T01:12:48;16.42;;;5.40;;
62338;SDS011;48368;53.406;6.214;2022-07-12T01:15:15;55.13;;;6.88;;
62338;SDS011;48368;53.406;6.214;2022-07-12T01:17:41;43.70;;;6.57;;
62338;SDS011;48368;53.406;6.214;2022-07-12T01:20:09;43.38;;;6.22;;
62338;SDS011;48368;53.406;6.214;2022-07-12T01:22:39;17.55;;;6.40;;
62338;SDS011;48368;53.406;6.214;2022-07-12T01:25:06;22.35;;;6.30;;
62338;SDS011;48368;53.406;6.214;2022-07-12T01:27:33;35.92;;;7.30;;
62338;SDS011;48368;53.406;6.214;2022-07-12T01:30:00;29.25;;;7.90;;
62338;SDS011;48368;53.406;6.214;2022-07-12T01:32:29;42.13;;;7.53;;
62338;SDS011;48368;53.406;6.214;2022-07-12T01:34:57;18.92;;;7.95;;
62338;SDS011;48368;53.406;6.214;2022-07-12T01:37:28;21.95;;;8.13;;
62338;SDS011;48368;53.406;6.214;2022-07-12T01:39:58;14.90;;;7.32;;
62338;SDS011;48368;53.406;6.214;2022-07-12T01:42:24;17.92;;;7.32;;
62338;SDS011;48368;53.406;6.214;2022-07-12T01:44:52;20.52;;;8.10;;
62338;SDS011;48368;53.406;6.214;2022-07-12T01:47:19;27.33;;;8.10;;
62338;SDS011;48368;53.406;6.214;2022-07-12T01:49:45;17.67;;;8.38;;
62338;SDS011;48368;53.406;6.214;2022-07-12T01:52:11;46.88;;;9.73;;
62338;SDS011;48368;53.406;6.214;2022-07-12T01:54:37;23.73;;;10.32;;
62338;SDS011;48368;53.406;6.214;2022-07-12T01:57:04;21.55;;;9.93;;
62338;SDS011;48368;53.406;6.214;2022-07-12T01:59:30;22.40;;;8.85;;
62338;SDS011;48368;53.406;6.214;2022-07-12T02:01:56;72.53;;;12.25;;
62338;SDS011;48368;53.406;6.214;2022-07-12T02:04:22;50.88;;;10.10;;
62338;SDS011;48368;53.406;6.214;2022-07-12T02:06:48;22.40;;;9.80;;
62338;SDS011;48368;53.406;6.214;2022-07-12T02:09:15;22.30;;;10.23;;
62338;SDS011;48368;53.406;6.214;2022-07-12T02:11:41;33.03;;;11.25;;
62338;SDS011;48368;53.406;6.214;2022-07-12T02:14:08;78.88;;;11.25;;
62338;SDS011;48368;53.406;6.214;2022-07-12T02:16:34;89.32;;;10.48;;
62338;SDS011;48368;53.406;6.214;2022-07-12T02:19:00;37.45;;;8.88;;
62338;SDS011;48368;53.406;6.214;2022-07-12T02:21:26;16.77;;;8.10;;
62338;SDS011;48368;53.406;6.214;2022-07-12T02:23:52;19.92;;;8.43;;
62338;SDS011;48368;53.406;6.214;2022-07-12T02:26:18;52.78;;;10.98;;
62338;SDS011;48368;53.406;6.214;2022-07-12T02:28:44;21.88;;;9.82;;
62338;SDS011;48368;53.406;6.214;2022-07-12T02:31:09;31.02;;;10.35;;
62338;SDS011;48368;53.406;6.214;2022-07-12T02:33:35;47.35;;;10.60;;
62338;SDS011;48368;53.406;6.214;2022-07-12T02:36:01;43.85;;;10.93;;
62338;SDS011;48368;53.406;6.214;2022-07-12T02:38:28;80.88;;;12.20;;
62338;SDS011;48368;53.406;6.214;2022-07-12T02:40:54;38.15;;;9.85;;
62338;SDS011;48368;53.406;6.214;2022-07-12T02:43:26;24.15;;;10.57;;
62338;SDS011;48368;53.406;6.214;2022-07-12T02:45:54;22.90;;;10.15;;
62338;SDS011;48368;53.406;6.214;2022-07-12T02:48:21;22.67;;;10.30;;
62338;SDS011;48368;53.406;6.214;2022-07-12T02:50:47;29.92;;;11.95;;
62338;SDS011;48368;53.406;6.214;2022-07-12T02:53:13;85.20;;;12.45;;
62338;SDS011;48368;53.406;6.214;2022-07-12T02:55:39;20.33;;;10.55;;
62338;SDS011;48368;53.406;6.214;2022-07-12T02:58:05;26.58;;;9.95;;
62338;SDS011;48368;53.406;6.214;2022-07-12T03:00:32;60.08;;;11.73;;
62338;SDS011;48368;53.406;6.214;2022-07-12T03:02:58;30.05;;;11.07;;
62338;SDS011;48368;53.406;6.214;2022-07-12T03:05:23;73.88;;;12.30;;
62338;SDS011;48368;53.406;6.214;2022-07-12T03:07:49;64.68;;;12.18;;
62338;SDS011;48368;53.406;6.214;2022-07-12T03:10:15;32.53;;;11.88;;
62338;SDS011;48368;53.406;6.214;2022-07-12T03:12:41;35.70;;;12.48;;
62338;SDS011;48368;53.406;6.214;2022-07-12T03:15:07;73.50;;;12.68;;
62338;SDS011;48368;53.406;6.214;2022-07-12T03:17:33;28.55;;;11.90;;
62338;SDS011;48368;53.406;6.214;2022-07-12T03:19:59;64.22;;;12.93;;
62338;SDS011;48368;53.406;6.214;2022-07-12T03:22:25;30.92;;;11.95;;
62338;SDS011;48368;53.406;6.214;2022-07-12T03:24:51;43.80;;;11.57;;
62338;SDS011;48368;53.406;6.214;2022-07-12T03:27:17;32.80;;;11.65;;
62338;SDS011;48368;53.406;6.214;2022-07-12T03:29:43;26.58;;;11.68;;
62338;SDS011;48368;53.406;6.214;2022-07-12T03:32:09;25.02;;;11.68;;
62338;SDS011;48368;53.406;6.214;2022-07-12T03:34:35;38.28;;;11.98;;
62338;SDS011;48368;53.406;6.214;2022-07-12T03:37:01;45.78;;;12.25;;
62338;SDS011;48368;53.406;6.214;2022-07-12T03:39:27;60.97;;;11.35;;
62338;SDS011;48368;53.406;6.214;2022-07-12T03:41:53;88.13;;;12.98;;
62338;SDS011;48368;53.406;6.214;2022-07-12T03:44:18;119.40;;;13.75;;
62338;SDS011;48368;53.406;6.214;2022-07-12T03:46:44;59.10;;;11.70;;
62338;SDS011;48368;53.406;6.214;2022-07-12T03:49:10;47.08;;;11.02;;
62338;SDS011;48368;53.406;6.214;2022-07-12T03:51:35;24.42;;;10.13;;
62338;SDS011;48368;53.406;6.214;2022-07-12T03:54:01;17.30;;;9.93;;
62338;SDS011;48368;53.406;6.214;2022-07-12T03:56:27;30.90;;;10.40;;
62338;SDS011;48368;53.406;6.214;2022-07-12T03:59:12;31.88;;;10.15;;
62338;SDS011;48368;53.406;6.214;2022-07-12T04:01:37;58.33;;;11.65;;
62338;SDS011;48368;53.406;6.214;2022-07-12T04:04:03;46.80;;;10.20;;
62338;SDS011;48368;53.406;6.214;2022-07-12T04:06:29;23.05;;;10.20;;
62338;SDS011;48368;53.406;6.214;2022-07-12T04:08:54;23.88;;;10.07;;
62338;SDS011;48368;53.406;6.214;2022-07-12T04:11:20;29.88;;;10.27;;
62338;SDS011;48368;53.406;6.214;2022-07-12T04:13:45;46.28;;;10.40;;
62338;SDS011;48368;53.406;6.214;2022-07-12T04:16:11;30.70;;;10.60;;
62338;SDS011;48368;53.406;6.214;2022-07-12T04:18:37;35.38;;;10.63;;
62338;SDS011;48368;53.406;6.214;2022-07-12T04:21:03;48.08;;;10.55;;
62338;SDS011;48368;53.406;6.214;2022-07-12T04:23:29;24.00;;;9.15;;
62338;SDS011;48368;53.406;6.214;2022-07-12T04:25:55;30.48;;;10.00;;
62338;SDS011;48368;53.406;6.214;2022-07-12T04:28:20;26.08;;;9.10;;
62338;SDS011;48368;53.406;6.214;2022-07-12T04:30:46;41.28;;;8.40;;
62338;SDS011;48368;53.406;6.214;2022-07-12T04:33:13;30.95;;;7.78;;
62338;SDS011;48368;53.406;6.214;2022-07-12T04:35:39;23.05;;;7.57;;
62338;SDS011;48368;53.406;6.214;2022-07-12T04:38:05;49.70;;;8.57;;
62338;SDS011;48368;53.406;6.214;2022-07-12T04:40:32;64.07;;;8.10;;
62338;SDS011;48368;53.406;6.214;2022-07-12T04:42:58;30.35;;;9.63;;
62338;SDS011;48368;53.406;6.214;2022-07-12T04:45:24;18.55;;;6.82;;
62338;SDS011;48368;53.406;6.214;2022-07-12T04:47:50;36.75;;;7.22;;
62338;SDS011;48368;53.406;6.214;2022-07-12T04:50:15;26.35;;;7.53;;
62338;SDS011;48368;53.406;6.214;2022-07-12T04:52:41;27.90;;;7.15;;
62338;SDS011;48368;53.406;6.214;2022-07-12T04:55:07;13.95;;;7.20;;
62338;SDS011;48368;53.406;6.214;2022-07-12T04:57:33;13.55;;;6.57;;
62338;SDS011;48368;53.406;6.214;2022-07-12T04:59:59;13.27;;;6.88;;
62338;SDS011;48368;53.406;6.214;2022-07-12T05:02:25;22.02;;;8.00;;
62338;SDS011;48368;53.406;6.214;2022-07-12T05:04:51;18.63;;;7.63;;
62338;SDS011;48368;53.406;6.214;2022-07-12T05:07:17;34.72;;;8.23;;
62338;SDS011;48368;53.406;6.214;2022-07-12T05:09:43;19.25;;;7.15;;
62338;SDS011;48368;53.406;6.214;2022-07-12T05:12:08;14.88;;;7.90;;
62338;SDS011;48368;53.406;6.214;2022-07-12T05:14:34;21.25;;;6.47;;
62338;SDS011;48368;53.406;6.214;2022-07-12T05:17:00;35.13;;;8.25;;
62338;SDS011;48368;53.406;6.214;2022-07-12T05:19:25;25.80;;;7.28;;
62338;SDS011;48368;53.406;6.214;2022-07-12T05:21:51;18.92;;;7.45;;
62338;SDS011;48368;53.406;6.214;2022-07-12T05:24:17;14.43;;;7.35;;
62338;SDS011;48368;53.406;6.214;2022-07-12T05:26:42;20.58;;;7.57;;
62338;SDS011;48368;53.406;6.214;2022-07-12T05:29:08;22.92;;;7.78;;
62338;SDS011;48368;53.406;6.214;2022-07-12T05:31:34;13.88;;;7.72;;
62338;SDS011;48368;53.406;6.214;2022-07-12T05:34:00;20.80;;;7.95;;
62338;SDS011;48368;53.406;6.214;2022-07-12T05:36:26;17.48;;;7.25;;
62338;SDS011;48368;53.406;6.214;2022-07-12T05:38:51;13.68;;;6.95;;
62338;SDS011;48368;53.406;6.214;2022-07-12T05:41:17;17.15;;;7.75;;
62338;SDS011;48368;53.406;6.214;2022-07-12T05:43:43;14.73;;;7.40;;
62338;SDS011;48368;53.406;6.214;2022-07-12T05:46:09;20.58;;;7.75;;
62338;SDS011;48368;53.406;6.214;2022-07-12T05:48:35;15.80;;;7.95;;
62338;SDS011;48368;53.406;6.214;2022-07-12T05:51:01;16.27;;;7.50;;
62338;SDS011;48368;53.406;6.214;2022-07-12T05:53:46;12.32;;;7.15;;
62338;SDS011;48368;53.406;6.214;2022-07-12T05:56:12;14.65;;;7.50;;
62338;SDS011;48368;53.406;6.214;2022-07-12T05:58:38;14.80;;;7.35;;
62338;SDS011;48368;53.406;6.214;2022-07-12T06:01:04;14.98;;;7.90;;
62338;SDS011;48368;53.406;6.214;2022-07-12T06:03:30;14.60;;;7.75;;
62338;SDS011;48368;53.406;6.214;2022-07-12T06:05:56;14.48;;;7.53;;
62338;SDS011;48368;53.406;6.214;2022-07-12T06:08:22;12.63;;;7.15;;
62338;SDS011;48368;53.406;6.214;2022-07-12T06:10:47;12.90;;;7.30;;
62338;SDS011;48368;53.406;6.214;2022-07-12T06:13:13;12.70;;;7.20;;
62338;SDS011;48368;53.406;6.214;2022-07-12T06:15:39;12.30;;;7.18;;
62338;SDS011;48368;53.406;6.214;2022-07-12T06:18:05;12.80;;;7.30;;
62338;SDS011;48368;53.406;6.214;2022-07-12T06:20:31;12.77;;;8.23;;
62338;SDS011;48368;53.406;6.214;2022-07-12T06:22:57;14.75;;;8.77;;
62338;SDS011;48368;53.406;6.214;2022-07-12T06:25:22;14.55;;;8.95;;
62338;SDS011;48368;53.406;6.214;2022-07-12T06:27:49;13.82;;;8.02;;
62338;SDS011;48368;53.406;6.214;2022-07-12T06:30:18;12.10;;;8.35;;
62338;SDS011;48368;53.406;6.214;2022-07-12T06:32:45;13.68;;;8.45;;
62338;SDS011;48368;53.406;6.214;2022-07-12T06:35:11;13.57;;;9.13;;
62338;SDS011;48368;53.406;6.214;2022-07-12T06:37:38;13.23;;;8.90;;
62338;SDS011;48368;53.406;6.214;2022-07-12T06:40:04;12.70;;;8.50;;
62338;SDS011;48368;53.406;6.214;2022-07-12T06:42:31;13.10;;;8.77;;
62338;SDS011;48368;53.406;6.214;2022-07-12T06:44:57;13.77;;;9.02;;
62338;SDS011;48368;53.406;6.214;2022-07-12T06:47:22;12.50;;;8.63;;
62338;SDS011;48368;53.406;6.214;2022-07-12T06:49:48;15.60;;;9.10;;
62338;SDS011;48368;53.406;6.214;2022-07-12T06:52:14;11.30;;;8.38;;
62338;SDS011;48368;53.406;6.214;2022-07-12T06:54:39;11.43;;;8.05;;
62338;SDS011;48368;53.406;6.214;2022-07-12T06:57:05;12.82;;;8.15;;
62338;SDS011;48368;53.406;6.214;2022-07-12T06:59:31;12.85;;;8.43;;
62338;SDS011;48368;53.406;6.214;2022-07-12T07:01:57;13.13;;;8.40;;
62338;SDS011;48368;53.406;6.214;2022-07-12T07:04:23;13.35;;;8.57;;
62338;SDS011;48368;53.406;6.214;2022-07-12T07:06:49;12.00;;;7.95;;
62338;SDS011;48368;53.406;6.214;2022-07-12T07:09:15;13.45;;;8.55;;
62338;SDS011;48368;53.406;6.214;2022-07-12T07:11:41;10.98;;;7.35;;
62338;SDS011;48368;53.406;6.214;2022-07-12T07:14:06;12.13;;;8.32;;
62338;SDS011;48368;53.406;6.214;2022-07-12T07:16:32;9.70;;;7.47;;
62338;SDS011;48368;53.406;6.214;2022-07-12T07:18:58;8.18;;;6.30;;
62338;SDS011;48368;53.406;6.214;2022-07-12T07:21:23;8.93;;;6.53;;
62338;SDS011;48368;53.406;6.214;2022-07-12T07:23:50;9.80;;;6.88;;
62338;SDS011;48368;53.406;6.214;2022-07-12T07:26:16;9.85;;;6.72;;
62338;SDS011;48368;53.406;6.214;2022-07-12T07:28:41;9.43;;;6.20;;
62338;SDS011;48368;53.406;6.214;2022-07-12T07:31:26;8.65;;;6.18;;
62338;SDS011;48368;53.406;6.214;2022-07-12T07:33:51;12.05;;;6.68;;
62338;SDS011;48368;53.406;6.214;2022-07-12T07:36:17;8.98;;;5.40;;
62338;SDS011;48368;53.406;6.214;2022-07-12T07:38:43;8.32;;;6.03;;
62338;SDS011;48368;53.406;6.214;2022-07-12T07:41:08;8.20;;;5.18;;
62338;SDS011;48368;53.406;6.214;2022-07-12T07:43:34;8.23;;;5.18;;
62338;SDS011;48368;53.406;6.214;2022-07-12T07:45:59;7.80;;;5.35;;
62338;SDS011;48368;53.406;6.214;2022-07-12T07:48:26;7.18;;;5.15;;
62338;SDS011;48368;53.406;6.214;2022-07-12T07:50:53;7.32;;;5.25;;
62338;SDS011;48368;53.406;6.214;2022-07-12T07:53:19;6.60;;;4.90;;
62338;SDS011;48368;53.406;6.214;2022-07-12T07:55:45;6.28;;;4.57;;
62338;SDS011;48368;53.406;6.214;2022-07-12T07:58:10;5.75;;;4.47;;
62338;SDS011;48368;53.406;6.214;2022-07-12T08:00:36;16.90;;;4.80;;
62338;SDS011;48368;53.406;6.214;2022-07-12T08:03:02;6.20;;;4.65;;
62338;SDS011;48368;53.406;6.214;2022-07-12T08:05:28;6.13;;;4.70;;
62338;SDS011;48368;53.406;6.214;2022-07-12T08:07:53;7.03;;;5.18;;
62338;SDS011;48368;53.406;6.214;2022-07-12T08:10:19;6.85;;;4.47;;
62338;SDS011;48368;53.406;6.214;2022-07-12T08:12:45;6.93;;;5.05;;
62338;SDS011;48368;53.406;6.214;2022-07-12T08:15:11;6.28;;;4.20;;
62338;SDS011;48368;53.406;6.214;2022-07-12T08:17:37;7.47;;;4.95;;
62338;SDS011;48368;53.406;6.214;2022-07-12T08:20:03;5.78;;;4.53;;
62338;SDS011;48368;53.406;6.214;2022-07-12T08:22:30;6.55;;;4.40;;
62338;SDS011;48368;53.406;6.214;2022-07-12T08:24:55;5.47;;;4.10;;
62338;SDS011;48368;53.406;6.214;2022-07-12T08:27:21;7.90;;;4.60;;
62338;SDS011;48368;53.406;6.214;2022-07-12T08:29:46;6.75;;;4.30;;
62338;SDS011;48368;53.406;6.214;2022-07-12T08:32:12;5.55;;;4.45;;
62338;SDS011;48368;53.406;6.214;2022-07-12T08:34:38;6.90;;;4.50;;
62338;SDS011;48368;53.406;6.214;2022-07-12T08:37:04;6.57;;;3.75;;
62338;SDS011;48368;53.406;6.214;2022-07-12T08:39:30;6.43;;;4.32;;
62338;SDS011;48368;53.406;6.214;2022-07-12T08:41:55;6.60;;;4.68;;
62338;SDS011;48368;53.406;6.214;2022-07-12T08:44:21;6.75;;;4.30;;
62338;SDS011;48368;53.406;6.214;2022-07-12T08:46:47;5.13;;;4.13;;
62338;SDS011;48368;53.406;6.214;2022-07-12T08:49:12;8.05;;;5.38;;
62338;SDS011;48368;53.406;6.214;2022-07-12T08:51:38;7.65;;;4.60;;
62338;SDS011;48368;53.406;6.214;2022-07-12T08:54:05;6.30;;;4.85;;
62338;SDS011;48368;53.406;6.214;2022-07-12T08:56:32;5.68;;;4.18;;
62338;SDS011;48368;53.406;6.214;2022-07-12T08:59:09;9.38;;;4.65;;
62338;SDS011;48368;53.406;6.214;2022-07-12T09:01:38;5.70;;;3.53;;
62338;SDS011;48368;53.406;6.214;2022-07-12T09:04:11;6.28;;;3.92;;
62338;SDS011;48368;53.406;6.214;2022-07-12T09:06:38;6.00;;;4.28;;
62338;SDS011;48368;53.406;6.214;2022-07-12T09:09:04;5.07;;;3.50;;
62338;SDS011;48368;53.406;6.214;2022-07-12T09:11:29;8.23;;;4.03;;
62338;SDS011;48368;53.406;6.214;2022-07-12T09:13:55;4.72;;;3.80;;
62338;SDS011;48368;53.406;6.214;2022-07-12T09:16:23;6.28;;;3.88;;
62338;SDS011;48368;53.406;6.214;2022-07-12T09:18:51;5.53;;;3.58;;
62338;SDS011;48368;53.406;6.214;2022-07-12T09:21:36;5.43;;;3.53;;
62338;SDS011;48368;53.406;6.214;2022-07-12T09:24:02;4.95;;;3.85;;
62338;SDS011;48368;53.406;6.214;2022-07-12T09:26:31;5.68;;;4.40;;
62338;SDS011;48368;53.406;6.214;2022-07-12T09:29:07;7.55;;;5.45;;
62338;SDS011;48368;53.406;6.214;2022-07-12T09:31:49;6.00;;;4.63;;
62338;SDS011;48368;53.406;6.214;2022-07-12T09:34:34;6.50;;;4.55;;
62338;SDS011;48368;53.406;6.214;2022-07-12T09:37:18;6.40;;;4.45;;
62338;SDS011;48368;53.406;6.214;2022-07-12T09:39:44;7.55;;;6.00;;
62338;SDS011;48368;53.406;6.214;2022-07-12T09:42:10;8.43;;;5.93;;
62338;SDS011;48368;53.406;6.214;2022-07-12T09:44:40;7.20;;;6.50;;
62338;SDS011;48368;53.406;6.214;2022-07-12T09:47:11;8.75;;;6.40;;
62338;SDS011;48368;53.406;6.214;2022-07-12T09:49:39;9.53;;;6.67;;
62338;SDS011;48368;53.406;6.214;2022-07-12T09:52:05;6.28;;;5.47;;
62338;SDS011;48368;53.406;6.214;2022-07-12T09:54:35;8.52;;;6.55;;
62338;SDS011;48368;53.406;6.214;2022-07-12T09:57:05;7.40;;;6.15;;
62338;SDS011;48368;53.406;6.214;2022-07-12T09:59:46;10.30;;;5.78;;
62338;SDS011;48368;53.406;6.214;2022-07-12T10:02:14;9.45;;;7.32;;
62338;SDS011;48368;53.406;6.214;2022-07-12T10:04:41;10.20;;;7.05;;
62338;SDS011;48368;53.406;6.214;2022-07-12T10:07:07;7.68;;;6.68;;
62338;SDS011;48368;53.406;6.214;2022-07-12T10:09:34;10.35;;;7.97;;
62338;SDS011;48368;53.406;6.214;2022-07-12T10:12:02;8.50;;;6.65;;
62338;SDS011;48368;53.406;6.214;2022-07-12T10:14:28;8.10;;;6.82;;
62338;SDS011;48368;53.406;6.214;2022-07-12T10:16:54;9.88;;;6.57;;
62338;SDS011;48368;53.406;6.214;2022-07-12T10:19:30;9.68;;;8.02;;
62338;SDS011;48368;53.406;6.214;2022-07-12T10:21:58;8.90;;;7.07;;
62338;SDS011;48368;53.406;6.214;2022-07-12T10:29:41;7.68;;;5.97;;
62338;SDS011;48368;53.406;6.214;2022-07-12T10:32:21;8.85;;;6.18;;
62338;SDS011;48368;53.406;6.214;2022-07-12T10:37:23;9.20;;;6.30;;
62338;SDS011;48368;53.406;6.214;2022-07-12T10:42:37;9.60;;;7.10;;
62338;SDS011;48368;53.406;6.214;2022-07-12T10:45:13;7.38;;;5.43;;
62338;SDS011;48368;53.406;6.214;2022-07-12T10:47:52;7.63;;;5.22;;
62338;SDS011;48368;53.406;6.214;2022-07-12T10:50:19;6.50;;;4.43;;
62338;SDS011;48368;53.406;6.214;2022-07-12T10:53:24;7.65;;;5.68;;
62338;SDS011;48368;53.406;6.214;2022-07-12T10:58:35;6.80;;;5.20;;
62338;SDS011;48368;53.406;6.214;2022-07-12T11:01:02;9.18;;;6.70;;
62338;SDS011;48368;53.406;6.214;2022-07-12T11:03:30;7.63;;;5.63;;
62338;SDS011;48368;53.406;6.214;2022-07-12T11:06:01;9.20;;;8.18;;
62338;SDS011;48368;53.406;6.214;2022-07-12T11:08:30;8.07;;;5.85;;
62338;SDS011;48368;53.406;6.214;2022-07-12T11:10:57;7.93;;;6.47;;
62338;SDS011;48368;53.406;6.214;2022-07-12T11:13:23;8.43;;;6.40;;
62338;SDS011;48368;53.406;6.214;2022-07-12T11:16:00;9.18;;;5.68;;
62338;SDS011;48368;53.406;6.214;2022-07-12T11:18:34;8.63;;;7.72;;
62338;SDS011;48368;53.406;6.214;2022-07-12T11:21:03;6.78;;;5.65;;
62338;SDS011;48368;53.406;6.214;2022-07-12T11:23:30;7.85;;;5.65;;
62338;SDS011;48368;53.406;6.214;2022-07-12T11:25:59;5.30;;;4.18;;
62338;SDS011;48368;53.406;6.214;2022-07-12T11:28:28;9.23;;;4.35;;
62338;SDS011;48368;53.406;6.214;2022-07-12T11:31:05;7.78;;;5.00;;
62338;SDS011;48368;53.406;6.214;2022-07-12T11:33:36;5.28;;;4.22;;
62338;SDS011;48368;53.406;6.214;2022-07-12T11:36:04;7.25;;;6.20;;
62338;SDS011;48368;53.406;6.214;2022-07-12T11:38:31;6.55;;;5.68;;
62338;SDS011;48368;53.406;6.214;2022-07-12T11:40:59;6.80;;;5.53;;
62338;SDS011;48368;53.406;6.214;2022-07-12T11:43:25;7.60;;;5.45;;
62338;SDS011;48368;53.406;6.214;2022-07-12T11:45:53;7.70;;;5.78;;
62338;SDS011;48368;53.406;6.214;2022-07-12T11:48:19;7.38;;;4.22;;
62338;SDS011;48368;53.406;6.214;2022-07-12T11:50:46;6.70;;;4.80;;
62338;SDS011;48368;53.406;6.214;2022-07-12T11:53:18;5.95;;;3.60;;
62338;SDS011;48368;53.406;6.214;2022-07-12T11:55:52;5.78;;;4.30;;
62338;SDS011;48368;53.406;6.214;2022-07-12T11:58:21;6.35;;;3.30;;
62338;SDS011;48368;53.406;6.214;2022-07-12T12:00:47;5.47;;;3.83;;
62338;SDS011;48368;53.406;6.214;2022-07-12T12:03:14;5.43;;;3.28;;
62338;SDS011;48368;53.406;6.214;2022-07-12T12:05:41;4.03;;;2.70;;
62338;SDS011;48368;53.406;6.214;2022-07-12T12:08:08;5.45;;;2.55;;
62338;SDS011;48368;53.406;6.214;2022-07-12T12:10:36;3.10;;;1.90;;
62338;SDS011;48368;53.406;6.214;2022-07-12T12:13:02;4.25;;;1.58;;
62338;SDS011;48368;53.406;6.214;2022-07-12T12:18:00;3.63;;;2.60;;
62338;SDS011;48368;53.406;6.214;2022-07-12T12:20:33;4.15;;;2.47;;
62338;SDS011;48368;53.406;6.214;2022-07-12T12:23:15;5.32;;;3.00;;
62338;SDS011;48368;53.406;6.214;2022-07-12T12:25:42;5.35;;;3.00;;
62338;SDS011;48368;53.406;6.214;2022-07-12T12:28:08;6.32;;;3.40;;
62338;SDS011;48368;53.406;6.214;2022-07-12T12:30:38;4.78;;;3.30;;
62338;SDS011;48368;53.406;6.214;2022-07-12T12:33:33;4.95;;;2.80;;
62338;SDS011;48368;53.406;6.214;2022-07-12T12:36:14;6.97;;;3.72;;
62338;SDS011;48368;53.406;6.214;2022-07-12T13:00:17;8.70;;;4.22;;
62338;SDS011;48368;53.406;6.214;2022-07-12T13:02:43;6.05;;;3.70;;
62338;SDS011;48368;53.406;6.214;2022-07-12T13:05:09;5.75;;;3.65;;
62338;SDS011;48368;53.406;6.214;2022-07-12T13:07:34;5.35;;;2.83;;
62338;SDS011;48368;53.406;6.214;2022-07-12T13:10:00;5.00;;;4.00;;
62338;SDS011;48368;53.406;6.214;2022-07-12T13:12:26;6.47;;;3.20;;
62338;SDS011;48368;53.406;6.214;2022-07-12T13:14:51;5.78;;;2.58;;
62338;SDS011;48368;53.406;6.214;2022-07-12T13:17:17;5.95;;;2.65;;
62338;SDS011;48368;53.406;6.214;2022-07-12T13:19:43;4.13;;;2.72;;
62338;SDS011;48368;53.406;6.214;2022-07-12T13:22:08;5.68;;;3.30;;
62338;SDS011;48368;53.406;6.214;2022-07-12T13:24:34;5.32;;;2.75;;
62338;SDS011;48368;53.406;6.214;2022-07-12T13:27:00;3.92;;;2.63;;
62338;SDS011;48368;53.406;6.214;2022-07-12T13:29:26;3.35;;;2.10;;
62338;SDS011;48368;53.406;6.214;2022-07-12T13:31:51;6.65;;;2.65;;
62338;SDS011;48368;53.406;6.214;2022-07-12T13:34:17;5.25;;;2.47;;
62338;SDS011;48368;53.406;6.214;2022-07-12T13:36:43;4.72;;;2.40;;
62338;SDS011;48368;53.406;6.214;2022-07-12T13:39:08;6.35;;;2.38;;
62338;SDS011;48368;53.406;6.214;2022-07-12T13:41:53;3.90;;;1.95;;
62338;SDS011;48368;53.406;6.214;2022-07-12T13:44:18;4.07;;;2.33;;
62338;SDS011;48368;53.406;6.214;2022-07-12T13:46:44;3.28;;;2.55;;
62338;SDS011;48368;53.406;6.214;2022-07-12T13:49:10;3.08;;;2.38;;
62338;SDS011;48368;53.406;6.214;2022-07-12T13:51:35;4.45;;;2.40;;
62338;SDS011;48368;53.406;6.214;2022-07-12T13:54:01;4.45;;;2.42;;
62338;SDS011;48368;53.406;6.214;2022-07-12T13:56:26;3.83;;;2.40;;
62338;SDS011;48368;53.406;6.214;2022-07-12T13:58:52;5.75;;;2.30;;
62338;SDS011;48368;53.406;6.214;2022-07-12T14:01:18;4.25;;;2.50;;
62338;SDS011;48368;53.406;6.214;2022-07-12T14:03:43;3.17;;;2.42;;
62338;SDS011;48368;53.406;6.214;2022-07-12T14:06:09;3.75;;;2.20;;
62338;SDS011;48368;53.406;6.214;2022-07-12T14:08:35;5.40;;;2.50;;
62338;SDS011;48368;53.406;6.214;2022-07-12T14:11:00;6.93;;;2.60;;
62338;SDS011;48368;53.406;6.214;2022-07-12T14:13:26;5.28;;;2.70;;
62338;SDS011;48368;53.406;6.214;2022-07-12T14:15:51;4.95;;;2.78;;
62338;SDS011;48368;53.406;6.214;2022-07-12T14:18:17;3.83;;;2.50;;
62338;SDS011;48368;53.406;6.214;2022-07-12T14:20:43;4.43;;;2.03;;
62338;SDS011;48368;53.406;6.214;2022-07-12T14:23:09;3.90;;;2.42;;
62338;SDS011;48368;53.406;6.214;2022-07-12T14:25:38;4.68;;;2.78;;
62338;SDS011;48368;53.406;6.214;2022-07-12T14:28:04;4.90;;;2.35;;
62338;SDS011;48368;53.406;6.214;2022-07-12T14:30:29;5.40;;;2.85;;
62338;SDS011;48368;53.406;6.214;2022-07-12T14:32:55;3.90;;;2.65;;
62338;SDS011;48368;53.406;6.214;2022-07-12T14:35:20;4.82;;;3.13;;
62338;SDS011;48368;53.406;6.214;2022-07-12T14:37:46;5.38;;;3.35;;
62338;SDS011;48368;53.406;6.214;2022-07-12T14:40:12;4.25;;;3.20;;
62338;SDS011;48368;53.406;6.214;2022-07-12T14:42:38;5.32;;;4.32;;
62338;SDS011;48368;53.406;6.214;2022-07-12T14:45:04;7.35;;;4.03;;
62338;SDS011;48368;53.406;6.214;2022-07-12T14:47:31;6.35;;;4.25;;
62338;SDS011;48368;53.406;6.214;2022-07-12T14:49:56;8.70;;;5.10;;
62338;SDS011;48368;53.406;6.214;2022-07-12T14:52:22;6.47;;;5.00;;
62338;SDS011;48368;53.406;6.214;2022-07-12T14:54:48;5.88;;;3.83;;
62338;SDS011;48368;53.406;6.214;2022-07-12T14:57:15;8.50;;;5.28;;
62338;SDS011;48368;53.406;6.214;2022-07-12T14:59:42;7.05;;;5.15;;
62338;SDS011;48368;53.406;6.214;2022-07-12T15:02:07;6.70;;;5.82;;
62338;SDS011;48368;53.406;6.214;2022-07-12T15:04:33;10.73;;;8.07;;
62338;SDS011;48368;53.406;6.214;2022-07-12T15:06:59;10.25;;;8.52;;
62338;SDS011;48368;53.406;6.214;2022-07-12T15:09:25;12.15;;;9.65;;
62338;SDS011;48368;53.406;6.214;2022-07-12T15:11:50;13.82;;;9.95;;
62338;SDS011;48368;53.406;6.214;2022-07-12T15:14:16;11.82;;;10.05;;
62338;SDS011;48368;53.406;6.214;2022-07-12T15:16:42;11.05;;;8.65;;